»·PEaware :: N952FG KPDX-KCEC

N952FG :: KPDX-KCEC

FLIGHT INFORMATION

Flight Status: Arrived
Operator: Privately registered:
United States
More flights under this callsign
Pilot: Joseph C. (259)
Aircraft: SOCATA TBM-900
(TBM9)
More flights by this aircraft type
Origin: KPDX Portland Intl
United States
Destination: KCEC McNamara
United States
More flights between these airports :: More routes between these airports
Route: +UBG V287 OTH V27 CEC
File this flight plan on PilotEdge
Remarks:
Altitude:
(Current/Filed)
26,000ft
Speed:
(Current/Filed)
300kts
Departed: 09-Oct-19 10:43 AM
Arrived: 09-Oct-19 11:38 AM
Distance/Time
Traveled:
239nm/0:54
Distance/Time
To Go:
Arrived

Flight Plot

Page will automatically refresh every two minutes.


Map Options




Map Legend


Flown Route
Filed Route
Departure Airport
Arrival Airport
Navaid (VOR, NDB)
Fix

Horizontal Profiles

Position Reports

Time Latitude Longitude Heading Altitude Ground
Speed
09-Oct-19 10:23 45.587460 -122.584007 299 32ft 0kts
09-Oct-19 10:24 45.587460 -122.584007 299 32ft 0kts
09-Oct-19 10:25 45.587460 -122.584007 299 32ft 0kts
09-Oct-19 10:26 45.587460 -122.584007 299 32ft 0kts
09-Oct-19 10:27 45.587460 -122.584007 299 32ft 0kts
09-Oct-19 10:28 45.587460 -122.584007 299 32ft 0kts
09-Oct-19 10:29 45.587460 -122.584007 299 32ft 0kts
09-Oct-19 10:30 45.587460 -122.584007 299 32ft 0kts
09-Oct-19 10:31 45.587460 -122.584007 299 32ft 0kts
09-Oct-19 10:32 45.587460 -122.584007 299 32ft 0kts
09-Oct-19 10:33 45.587460 -122.584007 299 32ft 0kts
09-Oct-19 10:33 45.587460 -122.584007 299 32ft 0kts
09-Oct-19 10:35 45.587460 -122.584007 299 32ft 0kts
09-Oct-19 10:36 45.587460 -122.584007 299 32ft 0kts
09-Oct-19 10:36 45.587460 -122.584007 299 32ft 0kts
09-Oct-19 10:38 45.588087 -122.582706 35 32ft 10kts
09-Oct-19 10:39 45.590014 -122.586569 298 32ft 17kts
09-Oct-19 10:39 45.591816 -122.591201 298 32ft 16kts
09-Oct-19 10:40 45.594070 -122.596945 298 32ft 14kts
09-Oct-19 10:42 45.594961 -122.596010 121 32ft 7kts
09-Oct-19 10:42 45.585290 -122.570473 117 918ft 124kts
09-Oct-19 10:43 45.569407 -122.526008 117 2959ft 131kts
09-Oct-19 10:45 45.540307 -122.500985 232 5480ft 148kts
09-Oct-19 10:45 45.525169 -122.546948 244 7242ft 162kts
09-Oct-19 10:46 45.509981 -122.607074 244 10105ft 155kts
09-Oct-19 10:47 45.491053 -122.672086 245 12265ft 187kts
09-Oct-19 10:48 45.462228 -122.727871 244 14739ft 182kts
09-Oct-19 10:49 45.426510 -122.782856 202 17036ft 217kts
09-Oct-19 10:50 45.366088 -122.804420 203 19392ft 230kts
09-Oct-19 10:51 45.303236 -122.830892 205 21667ft 241kts
09-Oct-19 10:52 45.237480 -122.858839 206 23695ft 251kts
09-Oct-19 10:53 45.168496 -122.888127 207 25904ft 263kts
09-Oct-19 10:54 45.089099 -122.921868 204 26416ft 334kts
09-Oct-19 10:55 44.993710 -122.961952 203 26391ft 369kts
09-Oct-19 10:56 44.894542 -123.003567 203 26355ft 378kts
09-Oct-19 10:57 44.793743 -123.045726 203 26336ft 371kts
09-Oct-19 10:58 44.741129 -123.067689 203 26338ft 368kts
09-Oct-19 10:59 44.641966 -123.108964 203 26342ft 366kts
09-Oct-19 11:00 44.542693 -123.150133 203 26370ft 364kts
09-Oct-19 11:01 44.443346 -123.191187 203 26373ft 364kts
09-Oct-19 11:02 44.344236 -123.231995 204 26374ft 364kts
09-Oct-19 11:03 44.245758 -123.272402 204 26376ft 363kts
09-Oct-19 11:04 44.147521 -123.312570 204 26378ft 363kts
09-Oct-19 11:05 44.049819 -123.352380 204 26380ft 362kts
09-Oct-19 11:06 43.953049 -123.391675 204 26380ft 362kts
09-Oct-19 11:07 43.857979 -123.430148 204 26364ft 361kts
09-Oct-19 11:08 43.762367 -123.468719 204 26364ft 358kts
09-Oct-19 11:09 43.671941 -123.505078 204 26367ft 357kts
09-Oct-19 11:10 43.575705 -123.543628 204 25607ft 355kts
09-Oct-19 11:11 43.482155 -123.581007 204 24350ft 352kts
09-Oct-19 11:12 43.389742 -123.617820 204 23001ft 348kts
09-Oct-19 11:13 43.298467 -123.654066 202 21324ft 345kts
09-Oct-19 11:14 43.206797 -123.690327 202 19655ft 341kts
09-Oct-19 11:15 43.116134 -123.726087 201 17988ft 336kts
09-Oct-19 11:16 43.026639 -123.761269 200 16462ft 327kts
09-Oct-19 11:17 42.941730 -123.794560 200 15401ft 316kts
09-Oct-19 11:18 42.859884 -123.826561 200 14402ft 309kts
09-Oct-19 11:19 42.778405 -123.858327 200 13668ft 301kts
09-Oct-19 11:20 42.698406 -123.889437 200 12953ft 298kts
09-Oct-19 11:21 42.618430 -123.920451 199 12240ft 296kts
09-Oct-19 11:22 42.538945 -123.951194 199 11530ft 295kts
09-Oct-19 11:23 42.460521 -123.981445 199 10834ft 294kts
09-Oct-19 11:24 42.382931 -124.011296 199 10147ft 293kts
09-Oct-19 11:25 42.305146 -124.041028 201 9465ft 282kts
09-Oct-19 11:26 42.233059 -124.068864 198 8348ft 252kts
09-Oct-19 11:27 42.168206 -124.093459 193 6855ft 249kts
09-Oct-19 11:28 42.103399 -124.118220 193 6857ft 238kts
09-Oct-19 11:29 42.036101 -124.143723 198 5842ft 245kts
09-Oct-19 11:30 41.975136 -124.166939 198 4632ft 222kts
09-Oct-19 11:31 41.916931 -124.188985 198 3430ft 214kts
09-Oct-19 11:32 41.861833 -124.210926 205 2351ft 204kts
09-Oct-19 11:33 41.814886 -124.237551 209 1826ft 175kts
09-Oct-19 11:34 41.778156 -124.264577 202 816ft 136kts
09-Oct-19 11:35 41.759347 -124.244485 9 570ft 72kts
09-Oct-19 11:36 41.777710 -124.238907 5 60ft 50kts
09-Oct-19 11:37 41.778581 -124.235292 275 60ft 6kts
09-Oct-19 11:38 41.778656 -124.235640 297 60ft 0kts

Navigation Log

Ident Type
Flight plan parsing failed, navigation log unavailable